createdAt,value
2019-05-15T00:00:45.000Z,102561.61
2019-05-15T00:01:52.104Z,102569.73
2019-05-15T00:02:59.640Z,102566.23
2019-05-15T00:04:09.151Z,102563.70
2019-05-15T00:05:18.657Z,102565.37
2019-05-15T00:06:25.120Z,102566.70
2019-05-15T00:07:32.616Z,102560.30
2019-05-15T00:08:39.926Z,102563.67
2019-05-15T00:09:49.215Z,102566.25
2019-05-15T00:10:58.691Z,102564.93
2019-05-15T00:12:08.433Z,102556.83
2019-05-15T00:13:14.863Z,102563.20
2019-05-15T00:14:22.653Z,102558.52
2019-05-15T00:15:29.366Z,102557.20
2019-05-15T00:16:38.637Z,102553.35
2019-05-15T00:17:48.310Z,102550.80
2019-05-15T00:18:55.475Z,102555.50
2019-05-15T00:20:02.551Z,102550.80
2019-05-15T00:21:10.346Z,102549.50
2019-05-15T00:22:18.324Z,102548.22
2019-05-15T00:23:28.934Z,102548.16
2019-05-15T00:24:35.171Z,102546.80
2019-05-15T00:25:42.696Z,102550.66
2019-05-15T00:26:49.445Z,102547.25
2019-05-15T00:27:58.266Z,102546.39
2019-05-15T00:29:12.855Z,102547.20
2019-05-15T00:30:14.618Z,102541.23
2019-05-15T00:31:21.738Z,102546.79
2019-05-15T00:32:29.205Z,102539.52
2019-05-15T00:33:35.920Z,102542.06
2019-05-15T00:34:43.442Z,102549.70
2019-05-15T00:35:51.043Z,102541.16
2019-05-15T00:36:58.542Z,102542.00
2019-05-15T00:38:05.905Z,102540.27
2019-05-15T00:39:13.369Z,102542.41
2019-05-15T00:40:20.421Z,102542.85
2019-05-15T00:41:27.957Z,102542.41
2019-05-15T00:42:34.699Z,102542.39
2019-05-15T00:43:42.163Z,102541.97
2019-05-15T00:44:49.504Z,102541.97
2019-05-15T00:45:58.576Z,102539.38
2019-05-15T00:47:05.518Z,102537.69
2019-05-15T00:48:12.984Z,102535.55
2019-05-15T00:49:19.717Z,102537.69
2019-05-15T00:50:28.754Z,102535.16
2019-05-15T00:51:35.844Z,102535.16
2019-05-15T00:52:44.075Z,102532.99
2019-05-15T00:53:50.813Z,102531.73
2019-05-15T00:54:59.059Z,102532.19
2019-05-15T00:56:06.084Z,102536.33
2019-05-15T00:57:14.257Z,102534.66
2019-05-15T00:58:20.995Z,102530.37
2019-05-15T00:59:29.951Z,102536.75
2019-05-15T01:00:48.688Z,102535.91
2019-05-15T01:01:56.442Z,102530.75
2019-05-15T01:03:03.582Z,102532.98
2019-05-15T01:04:11.061Z,102529.98
2019-05-15T01:05:18.607Z,102523.56
2019-05-15T01:06:28.303Z,102531.63
2019-05-15T01:07:35.138Z,102530.27
2019-05-15T01:08:42.607Z,102533.72
2019-05-15T01:09:50.115Z,102526.87
2019-05-15T01:10:58.336Z,102528.53
2019-05-15T01:12:18.502Z,102523.78
2019-05-15T01:13:27.979Z,102531.00
2019-05-15T01:14:34.939Z,102522.05
2019-05-15T01:15:42.528Z,102523.36
2019-05-15T01:16:49.272Z,102522.84
2019-05-15T01:17:58.277Z,102521.95
2019-05-15T01:19:05.277Z,102524.05
2019-05-15T01:20:12.843Z,102520.22
2019-05-15T01:21:19.593Z,102525.70
2019-05-15T01:22:28.634Z,102525.28
2019-05-15T01:23:35.574Z,102518.37
2019-05-15T01:24:43.032Z,102517.51
2019-05-15T01:25:49.843Z,102516.70
2019-05-15T01:26:58.502Z,102511.91
2019-05-15T01:28:05.745Z,102516.98
2019-05-15T01:29:13.197Z,102518.67
2019-05-15T01:30:20.332Z,102513.52
2019-05-15T01:31:28.547Z,102517.34
2019-05-15T01:32:35.467Z,102516.06
2019-05-15T01:33:43.643Z,102516.44
2019-05-15T01:34:50.374Z,102515.63
2019-05-15T01:35:59.058Z,102516.86
2019-05-15T01:37:08.545Z,102518.56
2019-05-15T01:38:15.611Z,102518.64
2019-05-15T01:39:22.336Z,102521.59
2019-05-15T01:40:29.836Z,102515.16
2019-05-15T01:41:38.702Z,102514.73
2019-05-15T01:42:46.734Z,102517.25
2019-05-15T01:43:53.558Z,102521.91
2019-05-15T01:45:01.039Z,102516.30
2019-05-15T01:46:08.400Z,102511.24
2019-05-15T01:47:18.912Z,102518.89
2019-05-15T01:48:25.458Z,102512.88
2019-05-15T01:49:32.962Z,102506.89
2019-05-15T01:50:39.723Z,102513.64
2019-05-15T01:51:47.989Z,102511.12
2019-05-15T01:52:54.887Z,102505.56
2019-05-15T01:54:03.163Z,102512.27
2019-05-15T01:55:10.497Z,102512.27
2019-05-15T01:56:18.757Z,102513.53
2019-05-15T01:57:25.867Z,102514.80
2019-05-15T01:58:33.359Z,102515.31
2019-05-15T01:59:53.689Z,102513.50
2019-05-15T02:00:49.402Z,102509.60
2019-05-15T02:01:58.881Z,102513.34
2019-05-15T02:03:09.428Z,102518.31
2019-05-15T02:04:15.649Z,102515.80
2019-05-15T02:05:23.534Z,102512.84
2019-05-15T02:06:30.454Z,102511.56
2019-05-15T02:07:39.069Z,102513.23
2019-05-15T02:08:46.548Z,102511.12
2019-05-15T02:09:54.339Z,102508.96
2019-05-15T02:11:01.066Z,102513.67
2019-05-15T02:12:09.006Z,102514.48
2019-05-15T02:13:15.720Z,102516.59
2019-05-15T02:14:23.292Z,102510.56
2019-05-15T02:15:30.056Z,102516.99
2019-05-15T02:16:39.364Z,102511.37
2019-05-15T02:17:48.158Z,102510.16
2019-05-15T02:18:58.106Z,102514.44
2019-05-15T02:20:08.141Z,102511.86
2019-05-15T02:21:15.254Z,102520.31
2019-05-15T02:22:21.977Z,102514.25
2019-05-15T02:23:29.474Z,102510.45
2019-05-15T02:24:39.007Z,102517.68
2019-05-15T02:25:48.126Z,102510.45
2019-05-15T02:26:55.455Z,102509.60
2019-05-15T02:28:02.953Z,102513.38
2019-05-15T02:29:13.157Z,102510.29
2019-05-15T02:30:28.336Z,102517.48
2019-05-15T02:31:30.236Z,102511.96
2019-05-15T02:32:39.561Z,102510.59
2019-05-15T02:33:49.591Z,102513.12
2019-05-15T02:34:58.876Z,102513.97
2019-05-15T02:36:04.397Z,102508.36
2019-05-15T02:37:12.495Z,102510.40
2019-05-15T02:38:19.944Z,102508.25
2019-05-15T02:39:28.922Z,102504.36
2019-05-15T02:40:40.110Z,102503.39
2019-05-15T02:41:48.857Z,102504.24
2019-05-15T02:42:54.935Z,102505.91
2019-05-15T02:44:02.416Z,102504.67
2019-05-15T02:45:10.754Z,102503.36
2019-05-15T02:46:19.378Z,102504.22
2019-05-15T02:47:29.078Z,102506.73
2019-05-15T02:48:35.915Z,102500.36
2019-05-15T02:49:42.935Z,102500.76
2019-05-15T02:50:50.705Z,102498.94
2019-05-15T02:52:00.248Z,102498.06
2019-05-15T02:53:10.019Z,102504.40
2019-05-15T02:54:15.320Z,102500.97
2019-05-15T02:55:23.131Z,102502.37
2019-05-15T02:56:30.136Z,102503.12
2019-05-15T02:57:39.321Z,102495.45
2019-05-15T02:58:49.139Z,102501.82
2019-05-15T02:59:59.269Z,102498.36
2019-05-15T03:01:04.789Z,102502.73
2019-05-15T03:02:12.318Z,102500.94
2019-05-15T03:03:20.658Z,102497.54
2019-05-15T03:04:29.223Z,102498.42
2019-05-15T03:05:40.261Z,102499.20
2019-05-15T03:06:45.462Z,102502.12
2019-05-15T03:07:52.195Z,102501.63
2019-05-15T03:09:00.287Z,102500.52
2019-05-15T03:10:09.431Z,102496.59
2019-05-15T03:11:19.016Z,102498.66
2019-05-15T03:12:28.828Z,102496.92
2019-05-15T03:13:35.333Z,102505.84
2019-05-15T03:14:42.472Z,102507.58
2019-05-15T03:15:49.962Z,102504.11
2019-05-15T03:16:59.690Z,102510.48
2019-05-15T03:18:09.406Z,102505.36
2019-05-15T03:19:15.013Z,102506.23
2019-05-15T03:20:22.818Z,102510.06
2019-05-15T03:21:29.934Z,102506.59
2019-05-15T03:22:40.076Z,102505.30
2019-05-15T03:23:46.295Z,102505.66
2019-05-15T03:24:54.091Z,102499.19
2019-05-15T03:26:04.391Z,102502.55
2019-05-15T03:27:10.612Z,102507.19
2019-05-15T03:28:19.120Z,102502.91
2019-05-15T03:29:29.125Z,102505.91
2019-05-15T03:31:06.896Z,102504.61
2019-05-15T03:32:00.912Z,102499.94
2019-05-15T03:33:02.330Z,102508.42
2019-05-15T03:34:04.117Z,102501.23
2019-05-15T03:35:15.329Z,102501.27
2019-05-15T03:36:23.443Z,102505.42
2019-05-15T03:37:33.532Z,102501.86
2019-05-15T03:38:39.587Z,102506.13
2019-05-15T03:39:51.339Z,102503.95
2019-05-15T03:40:55.708Z,102501.47
2019-05-15T03:42:02.800Z,102504.50
2019-05-15T03:43:10.306Z,102503.69
2019-05-15T03:44:19.643Z,102497.32
2019-05-15T03:45:29.439Z,102497.25
2019-05-15T03:46:35.102Z,102503.63
2019-05-15T03:47:42.929Z,102502.77
2019-05-15T03:48:51.613Z,102495.55
2019-05-15T03:50:00.248Z,102499.80
2019-05-15T03:51:09.144Z,102499.80
2019-05-15T03:52:19.152Z,102497.22
2019-05-15T03:53:25.671Z,102499.31
2019-05-15T03:54:33.595Z,102499.66
2019-05-15T03:55:40.957Z,102498.49
2019-05-15T03:56:49.824Z,102494.21
2019-05-15T03:57:59.181Z,102491.24
2019-05-15T03:59:09.433Z,102493.69
2019-05-15T04:00:19.311Z,102493.19
2019-05-15T04:01:34.091Z,102494.18
2019-05-15T04:02:33.905Z,102494.60
2019-05-15T04:03:41.476Z,102494.53
2019-05-15T04:04:50.103Z,102491.95
2019-05-15T04:06:00.464Z,102494.28
2019-05-15T04:07:09.001Z,102492.91
2019-05-15T04:08:15.408Z,102496.16
2019-05-15T04:09:22.169Z,102492.84
2019-05-15T04:10:30.037Z,102493.89
2019-05-15T04:11:38.796Z,102497.06
2019-05-15T04:12:49.289Z,102496.47
2019-05-15T04:13:55.441Z,102494.95
2019-05-15T04:15:02.941Z,102501.97
2019-05-15T04:16:10.423Z,102492.02
2019-05-15T04:17:19.794Z,102496.89
2019-05-15T04:18:29.079Z,102501.30
2019-05-15T04:19:39.138Z,102495.09
2019-05-15T04:20:45.545Z,102495.70
2019-05-15T04:21:53.040Z,102496.73
2019-05-15T04:23:00.612Z,102498.20
2019-05-15T04:24:10.483Z,102500.91
2019-05-15T04:25:19.138Z,102495.14
2019-05-15T04:26:31.180Z,102499.11
2019-05-15T04:27:39.029Z,102504.39
2019-05-15T04:28:49.604Z,102504.56
2019-05-15T04:29:59.069Z,102504.69
2019-05-15T04:31:05.956Z,102500.53
2019-05-15T04:32:12.761Z,102501.03
2019-05-15T04:33:20.289Z,102500.64
2019-05-15T04:34:28.982Z,102504.97
2019-05-15T04:35:40.177Z,102502.51
2019-05-15T04:36:45.859Z,102503.45
2019-05-15T04:37:53.783Z,102502.64
2019-05-15T04:39:01.004Z,102506.91
2019-05-15T04:40:09.661Z,102502.72
2019-05-15T04:41:19.700Z,102505.36
2019-05-15T04:42:26.142Z,102503.28
2019-05-15T04:43:41.442Z,102503.74
2019-05-15T04:44:42.183Z,102504.63
2019-05-15T04:45:49.751Z,102503.38
2019-05-15T04:46:59.425Z,102497.73
2019-05-15T04:48:09.497Z,102496.91
2019-05-15T04:49:19.062Z,102499.88
2019-05-15T04:50:24.808Z,102506.62
2019-05-15T04:51:32.602Z,102504.37
2019-05-15T04:52:43.418Z,102504.66
2019-05-15T04:53:50.318Z,102502.80
2019-05-15T04:54:59.846Z,102500.53
2019-05-15T04:56:09.402Z,102496.56
2019-05-15T04:57:15.831Z,102499.48
2019-05-15T04:58:23.311Z,102497.70
2019-05-15T04:59:30.195Z,102504.84
2019-05-15T05:00:52.587Z,102501.80
2019-05-15T05:02:16.400Z,102498.73
2019-05-15T05:03:10.876Z,102505.50
2019-05-15T05:04:18.861Z,102503.80
2019-05-15T05:05:29.238Z,102498.56
2019-05-15T05:06:38.448Z,102498.07
2019-05-15T05:07:48.888Z,102507.52
2019-05-15T05:08:54.417Z,102506.58
2019-05-15T05:10:01.992Z,102506.17
2019-05-15T05:11:09.786Z,102507.01
2019-05-15T05:12:19.301Z,102501.40
2019-05-15T05:13:28.678Z,102501.77
2019-05-15T05:14:35.946Z,102508.16
2019-05-15T05:15:43.058Z,102509.52
2019-05-15T05:16:50.550Z,102500.93
2019-05-15T05:17:58.659Z,102507.34
2019-05-15T05:19:08.729Z,102509.02
2019-05-15T05:20:15.153Z,102507.31
2019-05-15T05:21:22.701Z,102510.65
2019-05-15T05:22:29.448Z,102509.67
2019-05-15T05:23:37.772Z,102509.67
2019-05-15T05:24:44.972Z,102506.75
2019-05-15T05:25:52.469Z,102512.33
2019-05-15T05:26:59.211Z,102510.59
2019-05-15T05:28:08.713Z,102509.31
2019-05-15T05:29:17.809Z,102514.95
2019-05-15T05:30:25.726Z,102511.47
2019-05-15T05:31:33.193Z,102514.13
2019-05-15T05:32:40.703Z,102511.57
2019-05-15T05:33:48.676Z,102518.05
2019-05-15T05:34:58.879Z,102511.23
2019-05-15T05:36:07.918Z,102517.25
2019-05-15T05:37:15.749Z,102513.95
2019-05-15T05:38:23.024Z,102517.42
2019-05-15T05:39:30.538Z,102515.34
2019-05-15T05:40:38.451Z,102515.38
2019-05-15T05:41:48.556Z,102521.41
2019-05-15T05:42:55.096Z,102514.20
2019-05-15T05:44:02.922Z,102519.45
2019-05-15T05:45:10.179Z,102524.60
2019-05-15T05:46:18.395Z,102525.86
2019-05-15T05:47:25.791Z,102525.47
2019-05-15T05:48:33.590Z,102526.41
2019-05-15T05:49:40.661Z,102526.48
2019-05-15T05:50:49.764Z,102524.86
2019-05-15T05:51:58.721Z,102524.02
2019-05-15T05:53:08.787Z,102528.79
2019-05-15T05:54:17.971Z,102523.30
2019-05-15T05:55:24.753Z,102518.66
2019-05-15T05:56:31.503Z,102528.95
2019-05-15T05:57:38.993Z,102531.14
2019-05-15T05:58:45.730Z,102533.75
2019-05-15T05:59:53.216Z,102530.80
2019-05-15T06:01:00.352Z,102529.51
2019-05-15T06:02:08.345Z,102535.96
2019-05-15T06:03:15.381Z,102538.16
2019-05-15T06:04:23.274Z,102529.70
2019-05-15T06:05:30.062Z,102527.20
2019-05-15T06:06:38.451Z,102533.23
2019-05-15T06:07:45.431Z,102534.51
2019-05-15T06:08:52.909Z,102529.44
2019-05-15T06:09:59.955Z,102528.27
2019-05-15T06:11:09.750Z,102533.42
2019-05-15T06:12:18.697Z,102534.33
2019-05-15T06:13:26.125Z,102535.66
2019-05-15T06:14:32.976Z,102533.14
2019-05-15T06:15:41.284Z,102535.73
2019-05-15T06:16:48.378Z,102530.65
2019-05-15T06:17:58.531Z,102538.41
2019-05-15T06:19:08.128Z,102536.28
2019-05-15T06:20:15.219Z,102540.59
2019-05-15T06:21:22.274Z,102541.87
2019-05-15T06:22:30.116Z,102541.48
2019-05-15T06:23:44.098Z,102543.65
2019-05-15T06:24:48.551Z,102548.80
2019-05-15T06:25:55.456Z,102547.08
2019-05-15T06:27:03.021Z,102553.92
2019-05-15T06:28:11.863Z,102550.53
2019-05-15T06:29:21.970Z,102547.12
2019-05-15T06:30:49.872Z,102548.44
2019-05-15T06:31:58.804Z,102550.14
2019-05-15T06:33:12.805Z,102551.45
2019-05-15T06:34:17.858Z,102554.45
2019-05-15T06:35:25.238Z,102551.45
2019-05-15T06:36:32.784Z,102554.03
2019-05-15T06:37:39.920Z,102554.08
2019-05-15T06:38:48.542Z,102553.67
2019-05-15T06:39:55.450Z,102555.39
2019-05-15T06:41:02.965Z,102558.80
2019-05-15T06:42:09.793Z,102548.97
2019-05-15T06:43:19.126Z,102556.66
2019-05-15T06:44:28.037Z,102550.67
2019-05-15T06:45:37.878Z,102548.95
2019-05-15T06:46:44.276Z,102552.79
2019-05-15T06:47:52.046Z,102549.38
2019-05-15T06:48:59.151Z,102544.66
2019-05-15T06:50:08.609Z,102551.06
2019-05-15T06:51:18.009Z,102545.92
2019-05-15T06:52:25.039Z,102547.63
2019-05-15T06:53:32.092Z,102552.78
2019-05-15T06:54:39.602Z,102546.34
2019-05-15T06:55:48.584Z,102539.05
2019-05-15T06:56:58.179Z,102546.77
2019-05-15T06:58:04.235Z,102542.47
2019-05-15T06:59:12.093Z,102536.02
2019-05-15T07:00:19.265Z,102531.28
2019-05-15T07:01:29.271Z,102537.27
2019-05-15T07:02:35.189Z,102543.26
2019-05-15T07:03:42.717Z,102543.22
2019-05-15T07:04:49.467Z,102544.51
2019-05-15T07:05:59.713Z,102536.75
2019-05-15T07:07:08.905Z,102541.02
2019-05-15T07:08:18.012Z,102539.32
2019-05-15T07:09:24.003Z,102545.76
2019-05-15T07:10:31.991Z,102538.92
2019-05-15T07:11:39.485Z,102545.75
2019-05-15T07:12:51.289Z,102540.61
2019-05-15T07:13:57.905Z,102543.17
2019-05-15T07:15:05.642Z,102542.77
2019-05-15T07:16:12.717Z,102539.28
2019-05-15T07:17:20.218Z,102545.75
2019-05-15T07:18:28.338Z,102545.75
2019-05-15T07:19:38.920Z,102541.89
2019-05-15T07:20:44.849Z,102542.34
2019-05-15T07:21:52.350Z,102540.61
2019-05-15T07:22:59.097Z,102541.90
2019-05-15T07:24:08.939Z,102532.02
2019-05-15T07:25:15.152Z,102537.59
2019-05-15T07:26:22.675Z,102529.02
2019-05-15T07:27:29.449Z,102534.56
2019-05-15T07:28:38.012Z,102541.00
2019-05-15T07:29:45.418Z,102535.85
2019-05-15T07:30:52.926Z,102542.68
2019-05-15T07:31:59.673Z,102541.79
2019-05-15T07:33:08.806Z,102543.92
2019-05-15T07:34:15.903Z,102536.23
2019-05-15T07:35:24.511Z,102536.70
2019-05-15T07:36:31.901Z,102555.54
2019-05-15T07:37:39.456Z,102544.80
2019-05-15T07:38:48.366Z,102542.23
2019-05-15T07:39:55.558Z,102537.08
2019-05-15T07:41:04.488Z,102537.93
2019-05-15T07:42:11.514Z,102540.09
2019-05-15T07:43:18.467Z,102538.37
2019-05-15T07:44:28.182Z,102545.65
2019-05-15T07:45:35.176Z,102538.77
2019-05-15T07:46:43.309Z,102536.23
2019-05-15T07:47:50.459Z,102540.50
2019-05-15T07:48:58.662Z,102541.78
2019-05-15T07:50:08.673Z,102543.45
2019-05-15T07:51:17.960Z,102539.59
2019-05-15T07:52:25.025Z,102534.86
2019-05-15T07:53:32.540Z,102536.62
2019-05-15T07:54:39.300Z,102536.20
2019-05-15T07:55:49.980Z,102533.62
2019-05-15T07:56:58.049Z,102530.98
2019-05-15T07:58:05.214Z,102536.97
2019-05-15T07:59:11.979Z,102538.20
2019-05-15T08:00:22.824Z,102533.95
2019-05-15T08:01:29.920Z,102537.86
2019-05-15T08:02:38.282Z,102533.55
2019-05-15T08:03:56.628Z,102530.98
2019-05-15T08:04:54.495Z,102539.10
2019-05-15T08:06:03.058Z,102527.44
2019-05-15T08:07:10.474Z,102539.73
2019-05-15T08:08:18.457Z,102537.53
2019-05-15T08:09:28.372Z,102543.95
2019-05-15T08:10:35.717Z,102541.40
2019-05-15T08:11:43.269Z,102539.70
2019-05-15T08:12:50.068Z,102537.52
2019-05-15T08:13:58.288Z,102538.36
2019-05-15T08:15:08.891Z,102537.91
2019-05-15T08:16:18.182Z,102529.34
2019-05-15T08:17:25.050Z,102530.64
2019-05-15T08:18:33.328Z,102534.92
2019-05-15T08:19:40.538Z,102531.44
2019-05-15T08:20:49.286Z,102527.96
2019-05-15T08:21:58.183Z,102530.52
2019-05-15T08:23:05.323Z,102522.73
2019-05-15T08:24:12.192Z,102524.41
2019-05-15T08:25:32.259Z,102512.03
2019-05-15T08:26:30.794Z,102513.70
2019-05-15T08:27:38.423Z,102520.08
2019-05-15T08:28:45.212Z,102507.17
2019-05-15T08:29:52.688Z,102516.97
2019-05-15T08:30:59.867Z,102505.73
2019-05-15T08:32:08.350Z,102513.00
2019-05-15T08:33:17.660Z,102509.19
2019-05-15T08:34:25.035Z,102511.31
2019-05-15T08:35:32.109Z,102500.58
2019-05-15T08:36:39.882Z,102510.90
2019-05-15T08:37:48.877Z,102507.02
2019-05-15T08:38:55.844Z,102506.52
2019-05-15T08:40:02.644Z,102505.26
2019-05-15T08:41:11.536Z,102501.45
2019-05-15T08:42:18.966Z,102506.10
2019-05-15T08:43:29.008Z,102498.41
2019-05-15T08:44:35.577Z,102503.52
2019-05-15T08:45:43.091Z,102491.87
2019-05-15T08:46:50.082Z,102498.60
2019-05-15T08:47:58.645Z,102497.55
2019-05-15T08:49:05.586Z,102495.73
2019-05-15T08:50:14.193Z,102486.72
2019-05-15T08:51:20.959Z,102485.35
2019-05-15T08:52:29.144Z,102487.77
2019-05-15T08:53:37.951Z,102487.70
2019-05-15T08:54:48.673Z,102487.64
2019-05-15T08:55:55.139Z,102478.08
2019-05-15T08:57:02.992Z,102475.83
2019-05-15T08:58:13.917Z,102483.94
2019-05-15T08:59:19.368Z,102479.06
2019-05-15T09:00:26.153Z,102480.25
2019-05-15T09:01:34.479Z,102481.05
2019-05-15T09:02:41.335Z,102477.11
2019-05-15T09:03:49.414Z,102475.02
2019-05-15T09:04:58.047Z,102476.25
2019-05-15T09:06:05.381Z,102476.56
2019-05-15T09:07:12.144Z,102471.85
2019-05-15T09:08:19.947Z,102467.99
2019-05-15T09:09:28.769Z,102474.09
2019-05-15T09:10:38.582Z,102468.27
2019-05-15T09:11:44.902Z,102468.33
2019-05-15T09:12:54.365Z,102468.10
2019-05-15T09:14:01.171Z,102469.39
2019-05-15T09:15:18.498Z,102468.22
2019-05-15T09:16:27.939Z,102467.02
2019-05-15T09:17:35.157Z,102463.14
2019-05-15T09:18:41.906Z,102459.38
2019-05-15T09:19:49.410Z,102460.69
2019-05-15T09:20:59.437Z,102452.47
2019-05-15T09:22:08.925Z,102454.64
2019-05-15T09:23:15.181Z,102462.27
2019-05-15T09:24:22.839Z,102460.48
2019-05-15T09:25:29.590Z,102455.46
2019-05-15T09:26:40.148Z,102457.63
2019-05-15T09:27:45.914Z,102458.89
2019-05-15T09:28:54.000Z,102457.27
2019-05-15T09:30:01.382Z,102456.80
2019-05-15T09:31:09.001Z,102452.55
2019-05-15T09:32:15.851Z,102445.67
2019-05-15T09:33:23.331Z,102444.74
2019-05-15T09:34:46.873Z,102441.16
2019-05-15T09:35:39.523Z,102442.66
2019-05-15T09:36:48.418Z,102444.28
2019-05-15T09:37:55.507Z,102428.86
2019-05-15T09:39:02.646Z,102428.95
2019-05-15T09:40:10.903Z,102431.48
2019-05-15T09:41:17.951Z,102429.11
2019-05-15T09:42:25.614Z,102429.62
2019-05-15T09:43:32.379Z,102430.55
2019-05-15T09:44:39.951Z,102432.20
2019-05-15T09:45:49.142Z,102439.20
2019-05-15T09:46:58.261Z,102424.56
2019-05-15T09:48:10.131Z,102423.63
2019-05-15T09:49:18.184Z,102425.33
2019-05-15T09:50:24.987Z,102425.25
2019-05-15T09:51:32.797Z,102419.95
2019-05-15T09:52:39.797Z,102415.22
2019-05-15T09:53:48.487Z,102420.34
2019-05-15T09:54:55.433Z,102423.42
2019-05-15T09:56:03.340Z,102425.52
2019-05-15T09:57:11.209Z,102415.22
2019-05-15T09:58:20.199Z,102417.86
2019-05-15T09:59:28.519Z,102413.25
2019-05-15T10:00:38.430Z,102420.08
2019-05-15T10:01:45.094Z,102414.09
2019-05-15T10:02:52.611Z,102409.30
2019-05-15T10:03:59.766Z,102408.30
2019-05-15T10:05:11.337Z,102410.25
2019-05-15T10:06:20.114Z,102409.61
2019-05-15T10:07:28.496Z,102405.65
2019-05-15T10:08:34.650Z,102404.17
2019-05-15T10:09:42.623Z,102399.77
2019-05-15T10:10:49.488Z,102404.41
2019-05-15T10:11:57.407Z,102406.45
2019-05-15T10:13:04.359Z,102398.22
2019-05-15T10:14:11.864Z,102399.06
2019-05-15T10:15:18.938Z,102382.95
2019-05-15T10:16:26.482Z,102389.98
2019-05-15T10:17:33.253Z,102400.43
2019-05-15T10:18:41.096Z,102394.72
2019-05-15T10:19:48.862Z,102397.69
2019-05-15T10:20:58.148Z,102392.63
2019-05-15T10:22:05.318Z,102395.23
2019-05-15T10:23:13.195Z,102386.16
2019-05-15T10:24:19.956Z,102382.23
2019-05-15T10:25:28.153Z,102390.20
2019-05-15T10:26:35.258Z,102388.17
2019-05-15T10:27:43.154Z,102392.28
2019-05-15T10:28:50.318Z,102388.02
2019-05-15T10:29:58.822Z,102379.65
2019-05-15T10:31:05.814Z,102383.95
2019-05-15T10:32:13.341Z,102376.77
2019-05-15T10:33:20.591Z,102368.20
2019-05-15T10:34:28.858Z,102374.56
2019-05-15T10:35:36.150Z,102372.13
2019-05-15T10:36:44.198Z,102370.19
2019-05-15T10:37:51.560Z,102372.70
2019-05-15T10:38:59.344Z,102367.90
2019-05-15T10:40:09.130Z,102364.92
2019-05-15T10:41:18.757Z,102370.73
2019-05-15T10:42:25.290Z,102367.20
2019-05-15T10:43:32.795Z,102368.04
2019-05-15T10:44:39.567Z,102362.39
2019-05-15T10:45:50.145Z,102356.33
2019-05-15T10:46:55.517Z,102357.23
2019-05-15T10:48:04.965Z,102360.58
2019-05-15T10:49:11.849Z,102362.66
2019-05-15T10:50:19.737Z,102354.14
2019-05-15T10:51:28.584Z,102358.83
2019-05-15T10:52:38.221Z,102352.47
2019-05-15T10:53:44.520Z,102355.77
2019-05-15T10:54:52.146Z,102357.30
2019-05-15T10:55:59.666Z,102358.80
2019-05-15T10:57:08.737Z,102352.78
2019-05-15T10:58:18.280Z,102355.48
2019-05-15T10:59:24.887Z,102356.45
2019-05-15T11:00:31.742Z,102348.81
2019-05-15T11:01:39.765Z,102346.50
2019-05-15T11:02:48.993Z,102334.77
2019-05-15T11:03:58.767Z,102339.77
2019-05-15T11:05:05.877Z,102333.62
2019-05-15T11:06:13.491Z,102339.37
2019-05-15T11:07:20.321Z,102346.74
2019-05-15T11:08:28.995Z,102342.98
2019-05-15T11:09:37.510Z,102342.08
2019-05-15T11:10:45.766Z,102338.98
2019-05-15T11:11:52.884Z,102336.89
2019-05-15T11:13:00.373Z,102329.38
2019-05-15T11:14:09.066Z,102326.83
2019-05-15T11:15:18.737Z,102327.88
2019-05-15T11:16:28.060Z,102331.61
2019-05-15T11:17:34.813Z,102333.89
2019-05-15T11:18:41.673Z,102328.45
2019-05-15T11:19:50.067Z,102323.63
2019-05-15T11:20:59.359Z,102327.19
2019-05-15T11:22:06.185Z,102324.17
2019-05-15T11:23:19.516Z,102317.53
2019-05-15T11:24:29.292Z,102322.73
2019-05-15T11:25:34.433Z,102320.11
2019-05-15T11:26:41.928Z,102317.80
2019-05-15T11:27:48.678Z,102333.14
2019-05-15T11:28:58.669Z,102326.28
2019-05-15T11:30:05.248Z,102323.17
2019-05-15T11:31:12.746Z,102326.57
2019-05-15T11:32:19.853Z,102321.87
2019-05-15T11:33:29.229Z,102320.35
2019-05-15T11:34:38.281Z,102305.34
2019-05-15T11:35:57.946Z,102314.13
2019-05-15T11:36:54.779Z,102314.43
2019-05-15T11:38:02.306Z,102318.07
2019-05-15T11:39:09.502Z,102313.89
2019-05-15T11:40:18.910Z,102328.33
2019-05-15T11:41:29.189Z,102314.33
2019-05-15T11:42:35.949Z,102317.62
2019-05-15T11:43:42.698Z,102310.84
2019-05-15T11:44:53.343Z,102309.91
2019-05-15T11:45:59.069Z,102305.47
2019-05-15T11:47:06.903Z,102301.02
2019-05-15T11:48:14.104Z,102304.41
2019-05-15T11:49:21.611Z,102297.59
2019-05-15T11:50:29.401Z,102298.06
2019-05-15T11:51:38.356Z,102305.87
2019-05-15T11:52:45.485Z,102301.89
2019-05-15T11:53:53.009Z,102296.39
2019-05-15T11:54:59.769Z,102292.30
2019-05-15T11:56:09.474Z,102297.94
2019-05-15T11:57:18.482Z,102296.70
2019-05-15T11:58:28.102Z,102297.70
2019-05-15T11:59:34.247Z,102288.75
2019-05-15T12:00:41.810Z,102290.22
2019-05-15T12:01:49.083Z,102288.05
2019-05-15T12:02:58.456Z,102296.31
2019-05-15T12:04:05.817Z,102298.94
2019-05-15T12:05:14.421Z,102294.52
2019-05-15T12:06:22.958Z,102300.26
2019-05-15T12:07:30.356Z,102295.81
2019-05-15T12:08:38.550Z,102297.43
2019-05-15T12:09:47.109Z,102294.63
2019-05-15T12:10:54.199Z,102292.31
2019-05-15T12:12:01.695Z,102292.64
2019-05-15T12:13:09.763Z,102285.22
2019-05-15T12:14:19.531Z,102278.64
2019-05-15T12:15:27.983Z,102284.89
2019-05-15T12:16:36.486Z,102278.00
2019-05-15T12:17:44.756Z,102276.36
2019-05-15T12:18:52.690Z,102275.16
2019-05-15T12:20:05.626Z,102278.17
2019-05-15T12:21:08.961Z,102278.97
2019-05-15T12:22:15.966Z,102277.00
2019-05-15T12:23:23.835Z,102277.04
2019-05-15T12:24:35.122Z,102276.05
2019-05-15T12:25:39.911Z,102272.52
2019-05-15T12:26:48.949Z,102275.83
2019-05-15T12:27:55.955Z,102264.44
2019-05-15T12:29:02.761Z,102267.44
2019-05-15T12:30:12.908Z,102253.90
2019-05-15T12:31:24.588Z,102253.59
2019-05-15T12:32:36.399Z,102258.33
2019-05-15T12:33:38.594Z,102267.29
2019-05-15T12:34:49.271Z,102264.05
2019-05-15T12:35:55.187Z,102274.04
2019-05-15T12:37:03.336Z,102269.88
2019-05-15T12:38:10.598Z,102266.72
2019-05-15T12:39:22.085Z,102267.98
2019-05-15T13:00:01.337Z,102264.70
2019-05-15T13:01:16.923Z,102255.21
2019-05-15T13:02:18.747Z,102258.64
2019-05-15T13:03:25.847Z,102261.89
2019-05-15T13:04:33.646Z,102259.12
2019-05-15T13:05:40.399Z,102263.00
2019-05-15T13:07:10.137Z,102255.58
2019-05-15T13:07:57.012Z,102251.36
2019-05-15T13:09:08.572Z,102256.46
2019-05-15T13:10:18.233Z,102252.00
2019-05-15T13:11:25.191Z,102250.39
2019-05-15T13:12:31.934Z,102245.86
2019-05-15T13:13:39.690Z,102250.02
2019-05-15T13:14:48.364Z,102239.05
2019-05-15T13:15:55.647Z,102232.52
2019-05-15T13:17:02.373Z,102232.22